Time;durP1;ratioP1;P1;durP2;ratioP2;P2;SDS_P1;SDS_P2;PMS_P1;PMS_P2;Temp;Humidity;BMP_temperature;BMP_pressure;BME280_temperature;BME280_humidity;BME280_pressure;Samples;Min_cycle;Max_cycle;Signal;HPM_P1;HPM_P2
2023/02/13 16:57:30;;;;;;;26.70;13.07;;;7.50;99.90;;;;;;5052541;28;20354;-61
2023/02/13 17:00:20;;;;;;;30.13;14.23;;;7.40;99.90;;;;;;5047006;28;20033;-61
2023/02/13 17:02:47;;;;;;;28.27;14.55;;;7.30;99.90;;;;;;5045824;28;20017;-62
2023/02/13 17:05:22;;;;;;;27.58;14.02;;;7.40;99.90;;;;;;5046922;28;20036;-61
2023/02/13 17:07:50;;;;;;;30.15;14.13;;;7.40;99.90;;;;;;5043400;28;20087;-61
2023/02/13 17:10:32;;;;;;;29.23;14.48;;;7.50;99.90;;;;;;5040041;28;20520;-61
2023/02/13 17:13:05;;;;;;;30.17;15.27;;;7.50;99.90;;;;;;5047129;28;20029;-61
2023/02/13 17:15:31;;;;;;;28.55;15.30;;;7.50;99.90;;;;;;5047928;28;20123;-61
2023/02/13 17:17:57;;;;;;;28.20;14.57;;;7.60;99.90;;;;;;5045896;28;20104;-61
2023/02/13 17:20:28;;;;;;;31.77;15.68;;;7.60;99.90;;;;;;5047134;28;20025;-62
2023/02/13 17:22:56;;;;;;;31.08;14.32;;;7.60;99.90;;;;;;5047133;28;20405;-61
2023/02/13 17:25:29;;;;;;;27.90;14.77;;;7.60;99.90;;;;;;5047403;28;20052;-62
2023/02/13 17:27:58;;;;;;;28.48;15.02;;;7.60;99.90;;;;;;5047773;28;20100;-61
2023/02/13 17:30:29;;;;;;;29.38;14.88;;;7.60;99.90;;;;;;5046935;28;20029;-61
2023/02/13 17:33:25;;;;;;;32.55;16.05;;;7.60;99.90;;;;;;5046951;28;20035;-61
2023/02/13 17:35:52;;;;;;;36.67;16.70;;;7.60;99.90;;;;;;5047942;28;20100;-62
2023/02/13 17:38:18;;;;;;;32.15;15.73;;;7.60;99.90;;;;;;5046549;28;20035;-61
2023/02/13 17:40:44;;;;;;;36.38;17.92;;;7.50;99.90;;;;;;5047304;28;20021;-61
2023/02/13 17:43:12;;;;;;;30.73;15.55;;;7.50;99.90;;;;;;5047739;28;20025;-62
2023/02/13 17:45:38;;;;;;;32.40;17.15;;;7.50;99.90;;;;;;5046248;28;20048;-61
2023/02/13 17:48:04;;;;;;;31.55;16.60;;;7.50;99.90;;;;;;5047202;28;20100;-61
2023/02/13 17:50:30;;;;;;;31.58;16.13;;;7.40;99.90;;;;;;5046649;28;20041;-61
2023/02/13 17:52:57;;;;;;;27.90;15.57;;;7.40;99.90;;;;;;5046121;28;20028;-62
2023/02/13 17:55:25;;;;;;;32.75;16.63;;;7.40;99.90;;;;;;5050191;28;20088;-62
2023/02/13 17:57:52;;;;;;;31.65;16.33;;;7.30;99.90;;;;;;5066507;28;20049;-62
2023/02/13 18:00:19;;;;;;;34.38;16.92;;;7.30;99.90;;;;;;5064972;28;20036;-61
2023/02/13 18:02:46;;;;;;;30.92;15.65;;;7.20;99.90;;;;;;5066765;28;20075;-62
2023/02/13 18:05:13;;;;;;;33.05;17.80;;;7.20;99.90;;;;;;5067208;28;20114;-63
2023/02/13 18:07:41;;;;;;;39.45;19.23;;;7.10;99.90;;;;;;5040587;28;20029;-60
2023/02/13 18:10:16;;;;;;;39.70;20.60;;;7.10;99.90;;;;;;5053354;28;20053;-61
2023/02/13 18:12:42;;;;;;;38.88;19.80;;;7.00;99.90;;;;;;5029774;28;20022;-60
2023/02/13 18:15:08;;;;;;;39.67;18.95;;;6.90;99.90;;;;;;5014956;28;20072;-61
2023/02/13 18:17:34;;;;;;;36.00;18.55;;;6.80;99.90;;;;;;5033053;28;20442;-61
2023/02/13 18:20:00;;;;;;;38.35;18.45;;;6.60;99.90;;;;;;5032536;28;20032;-61
2023/02/13 18:22:26;;;;;;;34.40;18.33;;;6.60;99.90;;;;;;5015378;28;20025;-61
2023/02/13 18:24:51;;;;;;;36.60;17.02;;;6.50;99.90;;;;;;5042695;28;20029;-61
2023/02/13 18:27:17;;;;;;;32.70;17.48;;;6.50;99.90;;;;;;5052491;28;20591;-60
2023/02/13 18:29:43;;;;;;;35.33;16.08;;;6.40;99.90;;;;;;5052563;28;20389;-61
2023/02/13 18:32:10;;;;;;;34.03;16.25;;;6.40;99.90;;;;;;5053167;28;20025;-61
2023/02/13 18:34:36;;;;;;;31.08;16.25;;;6.40;99.90;;;;;;5052522;28;20029;-60
2023/02/13 18:37:03;;;;;;;29.95;15.77;;;6.40;99.90;;;;;;5052521;28;20048;-61
2023/02/13 18:39:28;;;;;;;36.25;16.77;;;6.40;99.90;;;;;;5051704;28;20040;-60
2023/02/13 18:41:54;;;;;;;33.10;17.67;;;6.40;99.90;;;;;;5034738;28;20025;-60
2023/02/13 18:44:19;;;;;;;35.10;17.60;;;6.40;99.90;;;;;;5052635;28;20096;-60
2023/02/13 18:46:45;;;;;;;38.97;18.40;;;6.30;99.90;;;;;;5053023;28;20028;-60
2023/02/13 18:49:11;;;;;;;35.13;18.35;;;6.30;99.90;;;;;;5051284;28;20035;-61
2023/02/13 18:51:38;;;;;;;39.35;19.73;;;6.30;99.90;;;;;;5052204;28;20048;-61
2023/02/13 18:54:05;;;;;;;35.03;19.30;;;6.20;99.90;;;;;;5052353;28;20028;-60
2023/02/13 18:56:30;;;;;;;38.95;19.60;;;6.20;99.90;;;;;;5051716;28;20056;-60
2023/02/13 18:58:56;;;;;;;42.95;20.90;;;6.10;99.90;;;;;;5052266;28;20397;-61
2023/02/13 19:01:22;;;;;;;39.67;20.95;;;6.10;99.90;;;;;;5051857;28;20075;-61
2023/02/13 19:03:51;;;;;;;46.83;22.25;;;6.00;99.90;;;;;;5033045;28;20056;-61
2023/02/13 19:06:20;;;;;;;45.25;21.70;;;5.90;99.90;;;;;;5052655;28;20416;-62
2023/02/13 19:08:45;;;;;;;41.35;21.15;;;5.90;99.90;;;;;;5052336;28;20017;-61
2023/02/13 19:11:14;;;;;;;42.40;21.65;;;5.80;99.90;;;;;;5033417;28;20032;-61
2023/02/13 19:13:41;;;;;;;41.10;21.13;;;5.70;99.90;;;;;;5051593;28;20028;-61
2023/02/13 19:16:14;;;;;;;37.80;19.70;;;5.60;99.90;;;;;;5051930;28;20048;-61
2023/02/13 19:18:42;;;;;;;40.47;20.88;;;5.60;99.90;;;;;;5051008;28;20029;-60
2023/02/13 19:21:07;;;;;;;37.90;19.40;;;5.50;99.90;;;;;;5051809;28;20108;-61
2023/02/13 19:23:34;;;;;;;38.67;19.88;;;5.40;99.90;;;;;;5051134;28;20124;-61
2023/02/13 19:26:15;;;;;;;38.13;19.88;;;5.40;99.90;;;;;;5051929;28;20036;-61
2023/02/13 19:28:40;;;;;;;35.67;18.65;;;5.40;99.90;;;;;;5051460;28;20103;-61
2023/02/13 19:31:08;;;;;;;36.85;18.33;;;5.40;99.90;;;;;;5051670;28;20104;-61
2023/02/13 19:33:35;;;;;;;39.78;19.05;;;5.30;99.90;;;;;;5051770;28;20040;-61
2023/02/13 19:36:06;;;;;;;36.13;18.50;;;5.30;99.90;;;;;;5051468;28;20397;-61
2023/02/13 19:38:32;;;;;;;37.22;18.45;;;5.30;99.90;;;;;;5050725;28;20017;-61
2023/02/13 19:41:05;;;;;;;38.70;18.98;;;5.30;99.90;;;;;;5051725;28;20098;-61
2023/02/13 19:43:31;;;;;;;34.10;17.50;;;5.30;99.90;;;;;;5051357;28;20017;-60
2023/02/13 19:46:00;;;;;;;38.05;18.48;;;5.20;99.90;;;;;;5050947;28;20478;-60
2023/02/13 19:48:26;;;;;;;38.13;18.55;;;5.20;99.90;;;;;;5051794;28;20025;-61
2023/02/13 19:50:52;;;;;;;37.03;18.55;;;5.20;99.90;;;;;;5050407;28;20040;-61
2023/02/13 19:53:18;;;;;;;35.72;19.27;;;5.20;99.90;;;;;;5050240;28;20200;-61
2023/02/13 19:55:43;;;;;;;39.25;20.17;;;5.20;99.90;;;;;;5033171;28;20114;-60
2023/02/13 19:58:09;;;;;;;39.08;18.80;;;5.20;99.90;;;;;;5050988;28;20096;-61
2023/02/13 20:00:35;;;;;;;37.47;18.98;;;5.10;99.90;;;;;;5050646;28;20051;-61
2023/02/13 20:03:02;;;;;;;38.67;19.50;;;5.10;99.90;;;;;;5051478;28;20020;-61
2023/02/13 20:05:36;;;;;;;36.75;20.13;;;5.00;99.90;;;;;;5050210;28;20483;-61
2023/02/13 20:08:03;;;;;;;35.22;18.58;;;5.00;99.90;;;;;;5032909;28;20025;-61
2023/02/13 20:10:29;;;;;;;44.65;21.98;;;5.00;99.90;;;;;;5032810;28;20017;-60
2023/02/13 20:12:54;;;;;;;41.92;20.30;;;4.90;99.90;;;;;;5045180;28;20029;-60
2023/02/13 20:15:21;;;;;;;44.83;22.45;;;4.90;99.90;;;;;;5039087;28;20017;-60
2023/02/13 20:17:46;;;;;;;44.20;21.90;;;4.80;99.90;;;;;;5050313;28;20104;-61
2023/02/13 20:20:12;;;;;;;43.55;21.92;;;4.90;99.90;;;;;;5050685;28;20056;-61
2023/02/13 20:22:38;;;;;;;46.70;22.75;;;4.80;99.90;;;;;;5051545;28;20124;-60
2023/02/13 20:25:04;;;;;;;48.70;22.65;;;4.80;99.90;;;;;;5051305;28;20026;-61
2023/02/13 20:27:29;;;;;;;46.42;25.10;;;4.80;99.90;;;;;;5050813;28;20017;-60
2023/02/13 20:29:55;;;;;;;55.33;25.35;;;4.80;99.90;;;;;;5051371;28;20029;-61
2023/02/13 20:32:21;;;;;;;54.67;26.08;;;4.80;99.90;;;;;;5033211;28;20112;-61
2023/02/13 20:34:46;;;;;;;53.53;24.42;;;4.70;99.90;;;;;;5033195;28;20470;-61
2023/02/13 20:37:15;;;;;;;54.83;26.02;;;4.70;99.90;;;;;;5051944;28;20095;-61
2023/02/13 20:39:43;;;;;;;55.58;25.90;;;4.70;99.90;;;;;;5051058;28;20223;-61
2023/02/13 20:42:09;;;;;;;50.92;22.95;;;4.70;99.90;;;;;;5033018;28;20025;-61
2023/02/13 20:44:35;;;;;;;53.15;24.52;;;4.70;99.90;;;;;;5033313;28;20028;-61
2023/02/13 20:47:00;;;;;;;49.13;23.67;;;4.60;99.90;;;;;;5050367;28;20017;-61
2023/02/13 20:49:26;;;;;;;45.63;21.38;;;4.60;99.90;;;;;;5032567;28;20028;-61
2023/02/13 20:51:52;;;;;;;42.97;20.75;;;4.60;99.90;;;;;;5051238;28;20025;-61
2023/02/13 20:54:18;;;;;;;38.60;19.63;;;4.60;99.90;;;;;;5050924;28;20381;-61
2023/02/13 20:56:44;;;;;;;37.88;18.23;;;4.60;99.90;;;;;;5049997;28;20053;-60
2023/02/13 20:59:11;;;;;;;36.10;17.67;;;4.50;99.90;;;;;;5049697;28;20017;-61
2023/02/13 21:01:40;;;;;;;38.90;18.90;;;4.50;99.90;;;;;;5032390;28;20440;-61
2023/02/13 21:04:09;;;;;;;37.63;18.70;;;4.50;99.90;;;;;;5032614;28;20482;-61
2023/02/13 21:06:36;;;;;;;37.38;18.60;;;4.50;99.90;;;;;;5051025;28;20509;-61
2023/02/13 21:09:04;;;;;;;41.78;18.27;;;4.40;99.90;;;;;;5050443;28;20025;-61
2023/02/13 21:11:31;;;;;;;34.65;17.15;;;4.40;99.90;;;;;;5032808;28;20025;-61
2023/02/13 21:13:57;;;;;;;37.65;18.15;;;4.30;99.90;;;;;;5051053;28;20117;-61
2023/02/13 21:16:26;;;;;;;39.35;16.80;;;4.30;99.90;;;;;;5050259;28;20039;-61
2023/02/13 21:18:53;;;;;;;38.90;17.38;;;4.30;99.90;;;;;;5050487;28;20017;-61
2023/02/13 21:21:21;;;;;;;34.10;16.77;;;4.20;99.90;;;;;;5051168;28;20032;-60
2023/02/13 21:23:50;;;;;;;33.45;18.50;;;4.20;99.90;;;;;;5050227;28;20023;-60
2023/02/13 21:26:17;;;;;;;35.50;18.67;;;4.20;99.90;;;;;;5050548;28;20035;-61
2023/02/13 21:28:47;;;;;;;39.00;20.52;;;4.10;99.90;;;;;;5050126;28;20068;-60
2023/02/13 21:31:15;;;;;;;38.90;18.97;;;4.10;99.90;;;;;;5032828;28;20017;-60
2023/02/13 21:33:41;;;;;;;41.05;19.20;;;4.00;99.90;;;;;;5050896;28;20021;-61
2023/02/13 21:36:09;;;;;;;39.60;18.90;;;4.00;99.90;;;;;;5050840;28;20482;-61
2023/02/13 21:38:36;;;;;;;42.08;20.05;;;4.00;99.90;;;;;;5032122;28;20032;-61
2023/02/13 21:41:13;;;;;;;40.20;19.92;;;4.00;99.90;;;;;;5049466;28;20435;-61
